Time;durP1;ratioP1;P1;durP2;ratioP2;P2;SDS_P1;SDS_P2;PMS_P1;PMS_P2;Temp;Humidity;BMP_temperature;BMP_pressure;BME280_temperature;BME280_humidity;BME280_pressure;Samples;Min_cycle;Max_cycle;Signal;HPM_P1;HPM_P2
2020/12/03 00:01:03;;;;;;;15.30;9.57;;;2.40;99.90;;;;;;5033376;28;20771;-65
2020/12/03 00:03:36;;;;;;;17.73;10.43;;;2.30;99.90;;;;;;5033727;28;20514;-67
2020/12/03 00:06:15;;;;;;;17.60;11.80;;;2.30;99.90;;;;;;5033361;28;22094;-66
2020/12/03 00:08:45;;;;;;;20.50;11.20;;;2.30;99.90;;;;;;5033562;28;20423;-65
2020/12/03 00:11:11;;;;;;;19.60;11.57;;;2.30;99.90;;;;;;5033264;28;20432;-64
2020/12/03 00:13:36;;;;;;;15.53;11.20;;;2.30;99.90;;;;;;5033497;28;20489;-69
2020/12/03 00:16:04;;;;;;;14.50;9.63;;;2.30;99.90;;;;;;5033384;28;20266;-67
2020/12/03 00:18:33;;;;;;;16.13;10.23;;;2.30;99.90;;;;;;5033225;28;20684;-66
2020/12/03 00:21:00;;;;;;;16.60;10.90;;;2.30;99.90;;;;;;5033598;28;20917;-66
2020/12/03 00:23:26;;;;;;;15.23;10.50;;;2.20;99.90;;;;;;5033121;28;20801;-67
2020/12/03 00:25:54;;;;;;;16.37;10.27;;;2.30;99.90;;;;;;5033023;28;20418;-67
2020/12/03 00:28:20;;;;;;;16.37;10.73;;;2.20;99.90;;;;;;5032941;28;20630;-66
2020/12/03 00:30:45;;;;;;;17.07;10.70;;;2.20;99.90;;;;;;5033327;28;20438;-66
2020/12/03 00:33:18;;;;;;;16.73;11.57;;;2.20;99.90;;;;;;5032764;28;20482;-69
2020/12/03 00:35:48;;;;;;;15.23;10.47;;;2.20;99.90;;;;;;5032965;28;20212;-68
2020/12/03 00:38:16;;;;;;;18.97;11.10;;;2.20;99.90;;;;;;5032876;28;20525;-66
2020/12/03 00:40:42;;;;;;;16.33;10.80;;;2.30;99.90;;;;;;5020893;28;20432;-67
2020/12/03 00:43:07;;;;;;;18.63;11.97;;;2.20;99.90;;;;;;5013180;28;20446;-68
2020/12/03 00:45:33;;;;;;;18.60;12.63;;;2.20;99.90;;;;;;5012948;28;20173;-65
2020/12/03 00:47:59;;;;;;;17.67;11.30;;;2.20;99.90;;;;;;5013129;28;20669;-68
2020/12/03 00:50:24;;;;;;;14.97;9.67;;;2.20;99.90;;;;;;5012956;28;20521;-67
2020/12/03 00:52:50;;;;;;;18.10;10.77;;;2.10;99.90;;;;;;5014237;28;20222;-67
2020/12/03 00:55:16;;;;;;;17.80;11.53;;;2.10;99.90;;;;;;4995402;28;20185;-66
2020/12/03 00:57:41;;;;;;;17.57;10.60;;;2.10;99.90;;;;;;4994927;28;20555;-65
2020/12/03 01:00:09;;;;;;;16.17;10.27;;;2.20;99.90;;;;;;5012885;28;20572;-68
2020/12/03 01:02:35;;;;;;;16.17;9.67;;;2.20;99.90;;;;;;5012996;28;20181;-69
2020/12/03 01:05:01;;;;;;;14.90;9.70;;;2.20;99.90;;;;;;5013046;28;20482;-67
2020/12/03 01:07:27;;;;;;;14.40;9.60;;;2.20;99.90;;;;;;5012354;28;20247;-68
2020/12/03 01:09:53;;;;;;;14.23;10.30;;;2.20;99.90;;;;;;5012690;28;20177;-64
2020/12/03 01:12:18;;;;;;;15.80;10.17;;;2.20;99.90;;;;;;5012722;28;20800;-69
2020/12/03 01:14:44;;;;;;;15.67;9.53;;;2.30;99.90;;;;;;5012460;28;20423;-67
2020/12/03 01:17:15;;;;;;;16.23;11.13;;;2.20;99.90;;;;;;5012610;28;20176;-67
2020/12/03 01:19:41;;;;;;;17.63;10.73;;;2.20;99.90;;;;;;5012577;28;20206;-65
2020/12/03 01:22:08;;;;;;;15.30;10.30;;;2.10;99.90;;;;;;5012155;28;20427;-67
2020/12/03 01:24:34;;;;;;;16.80;10.67;;;2.10;99.90;;;;;;5012224;28;20462;-67
2020/12/03 01:27:00;;;;;;;18.40;9.83;;;2.10;99.90;;;;;;4994671;28;20806;-69
2020/12/03 01:29:26;;;;;;;15.70;10.90;;;2.10;99.90;;;;;;5012213;28;20411;-69
2020/12/03 01:31:52;;;;;;;16.03;10.73;;;2.20;99.90;;;;;;5012339;28;20562;-69
2020/12/03 01:34:18;;;;;;;14.77;10.17;;;2.10;99.90;;;;;;5012157;28;20180;-65
2020/12/03 01:36:47;;;;;;;14.90;10.13;;;2.20;99.90;;;;;;5011978;28;20779;-65
2020/12/03 01:39:13;;;;;;;13.37;9.63;;;2.20;99.90;;;;;;5012241;28;20415;-66
2020/12/03 01:41:38;;;;;;;17.80;10.90;;;2.10;99.90;;;;;;5011875;28;20916;-66
2020/12/03 01:44:04;;;;;;;15.60;11.20;;;2.10;99.90;;;;;;5012023;28;20172;-67
2020/12/03 01:46:42;;;;;;;14.73;10.27;;;2.20;99.90;;;;;;5012275;28;20259;-68
2020/12/03 01:49:17;;;;;;;15.47;10.57;;;2.10;99.90;;;;;;5011817;28;20271;-69
2020/12/03 01:51:48;;;;;;;14.37;9.90;;;2.10;99.90;;;;;;5013882;28;20897;-67
2020/12/03 01:54:16;;;;;;;14.93;10.47;;;2.20;99.90;;;;;;4994366;28;20411;-65
2020/12/03 01:57:10;;;;;;;13.03;9.33;;;2.20;99.90;;;;;;5012023;28;20419;-68
2020/12/03 01:59:39;;;;;;;14.17;9.17;;;2.20;99.90;;;;;;5012027;28;20506;-70
2020/12/03 02:02:06;;;;;;;12.73;8.53;;;2.20;99.90;;;;;;5011741;28;20951;-67
2020/12/03 02:04:32;;;;;;;12.07;8.30;;;2.20;99.90;;;;;;5011759;28;20428;-67
2020/12/03 02:07:05;;;;;;;14.50;8.87;;;2.30;99.90;;;;;;5011728;28;20497;-65
2020/12/03 02:09:31;;;;;;;11.80;8.23;;;2.30;99.90;;;;;;5011209;28;20580;-65
2020/12/03 02:11:56;;;;;;;13.43;8.23;;;2.30;99.90;;;;;;5011826;28;20490;-65
2020/12/03 02:14:23;;;;;;;14.43;9.53;;;2.30;99.90;;;;;;5011746;28;20180;-68
2020/12/03 02:16:49;;;;;;;13.67;9.10;;;2.30;99.90;;;;;;5011751;28;20246;-66
2020/12/03 02:19:22;;;;;;;15.57;9.93;;;2.30;99.90;;;;;;5011550;28;20904;-66
2020/12/03 02:22:14;;;;;;;13.93;9.23;;;2.30;99.90;;;;;;4993988;28;20526;-67
2020/12/03 02:24:42;;;;;;;13.97;8.63;;;2.30;99.90;;;;;;5006948;28;20455;-66
2020/12/03 02:27:10;;;;;;;11.47;7.90;;;2.30;99.90;;;;;;5011723;28;20509;-68
2020/12/03 02:29:35;;;;;;;13.27;8.43;;;2.30;99.90;;;;;;5011601;28;20453;-68
2020/12/03 02:32:02;;;;;;;12.70;7.93;;;2.30;99.90;;;;;;5011649;28;20424;-65
2020/12/03 02:34:27;;;;;;;12.53;7.90;;;2.30;99.90;;;;;;5011417;28;20173;-65
2020/12/03 02:36:55;;;;;;;13.93;8.77;;;2.20;99.90;;;;;;5011617;28;20423;-67
2020/12/03 02:39:23;;;;;;;14.10;9.07;;;2.30;99.90;;;;;;5011563;28;20196;-68
2020/12/03 02:41:49;;;;;;;13.30;9.40;;;2.30;99.90;;;;;;5011428;28;20539;-68
2020/12/03 02:44:16;;;;;;;14.30;8.60;;;2.30;99.90;;;;;;5011597;28;20498;-67
2020/12/03 02:46:42;;;;;;;12.03;8.50;;;2.30;99.90;;;;;;5011313;28;20203;-69
2020/12/03 02:49:09;;;;;;;12.07;8.37;;;2.40;99.90;;;;;;5010137;28;20407;-68
2020/12/03 02:51:40;;;;;;;12.80;8.10;;;2.30;99.90;;;;;;5011326;28;20168;-64
2020/12/03 02:54:07;;;;;;;12.83;8.37;;;2.30;99.90;;;;;;5011466;28;20447;-68
2020/12/03 02:56:33;;;;;;;13.70;9.07;;;2.40;99.90;;;;;;5011156;28;20415;-66
2020/12/03 02:58:58;;;;;;;13.73;9.27;;;2.40;99.90;;;;;;5011308;28;20421;-66
2020/12/03 03:01:24;;;;;;;14.33;9.23;;;2.30;99.90;;;;;;5011318;28;20185;-67
2020/12/03 03:03:49;;;;;;;15.43;9.87;;;2.40;99.90;;;;;;4993682;28;20180;-68
2020/12/03 03:06:15;;;;;;;16.53;10.67;;;2.40;99.90;;;;;;5011220;28;20252;-69
2020/12/03 03:08:40;;;;;;;13.37;9.23;;;2.30;99.90;;;;;;5011167;28;20204;-66
2020/12/03 03:11:06;;;;;;;14.87;9.50;;;2.40;99.90;;;;;;5011292;28;20184;-66
2020/12/03 03:13:32;;;;;;;13.73;9.50;;;2.40;99.90;;;;;;5011077;28;20173;-64
2020/12/03 03:15:57;;;;;;;14.30;9.67;;;2.40;99.90;;;;;;5011232;28;20515;-67
2020/12/03 03:18:23;;;;;;;16.10;10.40;;;2.40;99.90;;;;;;5011276;28;20180;-68
2020/12/03 03:20:49;;;;;;;14.63;9.87;;;2.30;99.90;;;;;;5011690;28;20207;-67
2020/12/03 03:23:15;;;;;;;14.13;10.30;;;2.40;99.90;;;;;;5014713;28;20231;-70
2020/12/03 03:25:41;;;;;;;12.83;9.07;;;2.30;99.90;;;;;;5014437;28;20188;-68
2020/12/03 03:28:07;;;;;;;13.63;9.77;;;2.40;99.90;;;;;;5014454;28;20447;-66
2020/12/03 03:30:33;;;;;;;16.67;10.63;;;2.40;99.90;;;;;;5014457;28;20204;-67
2020/12/03 03:32:58;;;;;;;14.50;9.80;;;2.40;99.90;;;;;;5014618;28;20897;-68
2020/12/03 03:35:24;;;;;;;15.37;10.37;;;2.40;99.90;;;;;;5014344;28;20592;-69
2020/12/03 03:37:50;;;;;;;14.50;10.10;;;2.50;99.90;;;;;;5014462;28;20184;-68
2020/12/03 03:40:16;;;;;;;17.03;10.50;;;2.50;99.90;;;;;;5014232;28;20259;-66
2020/12/03 03:42:42;;;;;;;15.63;9.87;;;2.50;99.90;;;;;;5014175;28;20271;-65
2020/12/03 03:45:09;;;;;;;18.57;9.70;;;2.50;99.90;;;;;;5014385;28;20768;-69
2020/12/03 03:47:35;;;;;;;14.93;11.73;;;2.50;99.90;;;;;;5014087;28;20949;-66
2020/12/03 03:50:00;;;;;;;16.27;11.47;;;2.40;99.90;;;;;;5014141;28;20426;-67
2020/12/03 03:52:26;;;;;;;17.20;11.33;;;2.50;99.90;;;;;;5016065;28;20208;-67
2020/12/03 03:54:52;;;;;;;20.17;12.77;;;2.50;99.90;;;;;;5014158;28;20586;-67
2020/12/03 03:57:17;;;;;;;18.60;11.47;;;2.50;99.90;;;;;;5014028;28;20177;-66
2020/12/03 03:59:48;;;;;;;19.07;13.57;;;2.50;99.90;;;;;;5013910;28;20195;-69
2020/12/03 04:02:18;;;;;;;21.23;14.00;;;2.40;99.90;;;;;;5012868;28;20208;-64
2020/12/03 04:04:44;;;;;;;22.03;14.07;;;2.40;99.90;;;;;;5013730;28;20423;-69
2020/12/03 04:07:10;;;;;;;23.23;13.97;;;2.40;99.90;;;;;;5013867;28;20514;-66
2020/12/03 04:09:35;;;;;;;23.70;14.83;;;2.40;99.90;;;;;;5013696;28;20173;-66
2020/12/03 04:12:01;;;;;;;23.03;14.37;;;2.30;99.90;;;;;;5013759;28;20184;-65
2020/12/03 04:14:27;;;;;;;22.07;14.47;;;2.30;99.90;;;;;;5013729;28;20615;-66
2020/12/03 04:16:52;;;;;;;23.90;14.27;;;2.30;99.90;;;;;;5013420;28;20545;-68
2020/12/03 04:19:18;;;;;;;23.20;16.03;;;2.30;99.90;;;;;;5013554;28;20177;-64
2020/12/03 04:21:43;;;;;;;23.00;15.93;;;2.30;99.90;;;;;;5013460;28;20181;-67
2020/12/03 04:24:09;;;;;;;25.53;17.03;;;2.30;99.90;;;;;;5013405;28;20181;-70
2020/12/03 04:26:34;;;;;;;23.60;16.30;;;2.30;99.90;;;;;;5013320;28;20188;-66
2020/12/03 04:29:00;;;;;;;27.37;16.30;;;2.30;99.90;;;;;;5013379;28;20308;-68
2020/12/03 04:31:26;;;;;;;25.53;17.10;;;2.40;99.90;;;;;;5013382;28;20177;-67
2020/12/03 04:33:51;;;;;;;26.90;17.30;;;2.30;99.90;;;;;;5012711;28;20208;-66
2020/12/03 04:36:17;;;;;;;26.30;16.50;;;2.30;99.90;;;;;;5013295;28;20184;-65
2020/12/03 04:38:42;;;;;;;24.83;16.53;;;2.40;99.90;;;;;;5013133;28;20176;-67
2020/12/03 04:41:09;;;;;;;26.53;17.93;;;2.40;99.90;;;;;;5013154;28;20492;-68
2020/12/03 04:43:44;;;;;;;27.57;18.23;;;2.40;99.90;;;;;;5013213;28;20263;-66
2020/12/03 04:46:27;;;;;;;26.57;18.00;;;2.50;99.90;;;;;;5013187;28;20429;-68
2020/12/03 04:49:26;;;;;;;26.37;16.77;;;2.50;99.90;;;;;;5013161;28;20422;-67
2020/12/03 04:52:29;;;;;;;25.70;17.20;;;2.50;99.90;;;;;;5012770;28;20963;-67
2020/12/03 04:55:15;;;;;;;27.77;18.17;;;2.50;99.90;;;;;;5012463;28;20940;-67
2020/12/03 04:57:53;;;;;;;27.23;17.67;;;2.50;99.90;;;;;;5012479;28;20474;-67
2020/12/03 05:00:31;;;;;;;30.33;18.77;;;2.60;99.90;;;;;;5012865;28;20446;-69
2020/12/03 05:03:11;;;;;;;32.07;19.73;;;2.40;99.90;;;;;;5012476;28;20431;-65
2020/12/03 05:06:05;;;;;;;27.47;17.50;;;2.40;99.90;;;;;;5012675;28;20407;-65
2020/12/03 05:08:46;;;;;;;29.37;19.83;;;2.40;99.90;;;;;;5012640;28;20446;-64
2020/12/03 05:11:22;;;;;;;31.87;20.80;;;2.40;99.90;;;;;;5012506;28;20443;-67
2020/12/03 05:13:50;;;;;;;33.77;21.07;;;2.40;99.90;;;;;;5012502;28;20423;-68
2020/12/03 05:16:26;;;;;;;30.43;20.07;;;2.40;99.90;;;;;;5012368;28;20419;-67
2020/12/03 05:18:54;;;;;;;34.60;22.27;;;2.40;99.90;;;;;;5012575;28;20471;-66
2020/12/03 05:21:26;;;;;;;32.10;21.13;;;2.30;99.90;;;;;;5012501;28;20981;-65
2020/12/03 05:23:52;;;;;;;36.40;23.10;;;2.40;99.90;;;;;;5012077;28;20435;-66
2020/12/03 05:26:21;;;;;;;37.13;22.13;;;2.30;99.90;;;;;;5012302;28;20820;-66
2020/12/03 05:29:00;;;;;;;35.00;23.40;;;2.30;99.90;;;;;;5011932;28;20195;-65
2020/12/03 05:31:42;;;;;;;39.33;24.23;;;2.30;99.90;;;;;;5012290;28;20418;-68
2020/12/03 05:34:20;;;;;;;43.17;24.30;;;2.30;99.90;;;;;;5011873;28;20470;-68
2020/12/03 05:36:55;;;;;;;42.13;21.83;;;2.20;99.90;;;;;;5012106;28;20423;-66
2020/12/03 05:39:27;;;;;;;36.97;23.60;;;2.30;99.90;;;;;;5012179;28;20410;-65
2020/12/03 05:41:58;;;;;;;38.80;24.00;;;2.30;99.90;;;;;;5011929;28;20424;-67
2020/12/03 05:44:27;;;;;;;40.17;24.43;;;2.30;99.90;;;;;;5010966;28;20486;-68
2020/12/03 05:46:55;;;;;;;43.90;24.63;;;2.30;99.90;;;;;;5011842;28;20466;-66
2020/12/03 05:49:24;;;;;;;42.83;24.93;;;2.30;99.90;;;;;;5011610;28;20419;-66
2020/12/03 05:52:14;;;;;;;40.33;24.27;;;2.30;99.90;;;;;;5011948;28;20469;-68
2020/12/03 05:54:40;;;;;;;39.07;23.63;;;2.30;99.90;;;;;;5011118;28;20765;-67
2020/12/03 05:57:20;;;;;;;39.37;23.10;;;2.20;99.90;;;;;;5011856;28;20423;-66
2020/12/03 05:59:50;;;;;;;40.30;25.20;;;2.20;99.90;;;;;;5012043;28;20184;-67
2020/12/03 06:02:27;;;;;;;43.40;25.40;;;2.20;99.90;;;;;;5011866;28;20503;-67
2020/12/03 06:05:11;;;;;;;45.57;27.93;;;2.30;99.90;;;;;;5010504;28;20810;-66
2020/12/03 06:08:03;;;;;;;42.03;25.63;;;2.30;99.90;;;;;;5011623;28;20447;-68
2020/12/03 06:10:58;;;;;;;40.67;22.83;;;2.30;99.90;;;;;;5011757;28;20412;-69
2020/12/03 06:13:42;;;;;;;38.50;23.70;;;2.20;99.90;;;;;;5011979;28;20842;-69
2020/12/03 06:16:24;;;;;;;46.10;25.53;;;2.30;99.90;;;;;;5011734;28;20921;-69
2020/12/03 06:19:02;;;;;;;43.43;25.37;;;2.30;99.90;;;;;;4993438;28;20466;-66
2020/12/03 06:22:11;;;;;;;43.80;25.97;;;2.20;99.90;;;;;;5010622;28;20768;-65
2020/12/03 06:25:01;;;;;;;40.57;25.80;;;2.30;99.90;;;;;;5006084;28;20416;-67
2020/12/03 06:28:08;;;;;;;40.67;25.83;;;2.30;99.90;;;;;;5010322;28;20458;-69
2020/12/03 06:30:46;;;;;;;45.40;26.33;;;2.30;99.90;;;;;;4932279;28;20794;-65
2020/12/03 06:33:14;;;;;;;44.33;26.87;;;2.40;99.90;;;;;;4993301;28;20419;-64
2020/12/03 06:35:47;;;;;;;42.17;26.33;;;2.40;99.90;;;;;;4993804;28;20416;-67
2020/12/03 06:38:40;;;;;;;43.10;24.57;;;2.40;99.90;;;;;;4993268;28;20431;-67
2020/12/03 06:41:27;;;;;;;42.53;25.37;;;2.40;99.90;;;;;;5006288;28;20423;-65
2020/12/03 06:44:01;;;;;;;47.80;25.10;;;2.40;99.90;;;;;;5010745;28;20898;-66
2020/12/03 06:46:56;;;;;;;45.73;27.20;;;2.30;99.90;;;;;;5010864;28;20545;-66
2020/12/03 06:49:43;;;;;;;45.60;26.60;;;2.40;99.90;;;;;;5010555;28;20431;-69
2020/12/03 06:52:50;;;;;;;40.93;24.33;;;2.30;99.90;;;;;;5011281;28;20477;-65
2020/12/03 06:56:07;;;;;;;42.83;26.67;;;2.30;99.90;;;;;;5010808;28;20507;-67
2020/12/03 06:58:48;;;;;;;41.77;25.70;;;2.30;99.90;;;;;;4970689;28;20422;-66
2020/12/03 07:01:55;;;;;;;43.90;24.90;;;2.40;99.90;;;;;;5014677;28;20845;-65
2020/12/03 07:04:39;;;;;;;43.63;25.83;;;2.30;99.90;;;;;;5014435;28;20415;-67
2020/12/03 07:07:48;;;;;;;40.80;26.03;;;2.30;99.90;;;;;;5014508;28;20454;-68
2020/12/03 07:10:20;;;;;;;41.80;25.60;;;2.40;99.90;;;;;;5014298;28;20415;-65
2020/12/03 07:13:16;;;;;;;42.60;24.87;;;2.30;99.90;;;;;;5013920;28;20455;-66
2020/12/03 07:16:21;;;;;;;39.73;23.80;;;2.40;99.90;;;;;;5014621;28;20905;-67
2020/12/03 07:19:22;;;;;;;39.57;25.23;;;2.30;99.90;;;;;;5014233;28;20411;-65
2020/12/03 07:22:08;;;;;;;44.13;26.67;;;2.40;99.90;;;;;;5014053;28;20434;-69
2020/12/03 07:24:35;;;;;;;43.83;26.50;;;2.40;99.90;;;;;;5013699;28;21146;-68
2020/12/03 07:27:23;;;;;;;41.37;25.20;;;2.40;99.90;;;;;;5013937;28;20455;-70
2020/12/03 07:30:30;;;;;;;43.60;25.20;;;2.40;99.90;;;;;;5013946;28;20408;-68
2020/12/03 07:33:12;;;;;;;35.60;19.97;;;2.40;99.90;;;;;;5013841;28;20767;-68
2020/12/03 07:35:51;;;;;;;40.47;23.67;;;2.40;99.90;;;;;;5013998;28;20456;-65
2020/12/03 07:38:31;;;;;;;40.70;25.10;;;2.40;99.90;;;;;;5013970;28;20914;-67
2020/12/03 07:40:58;;;;;;;43.33;26.17;;;2.40;99.90;;;;;;5013599;28;20491;-70
2020/12/03 07:43:30;;;;;;;43.00;25.73;;;2.40;99.90;;;;;;5013568;28;20427;-68
2020/12/03 07:45:56;;;;;;;37.60;24.67;;;2.50;99.90;;;;;;5013491;28;20519;-69
2020/12/03 07:48:45;;;;;;;41.17;24.50;;;2.40;99.90;;;;;;5013562;28;20546;-66
2020/12/03 07:51:13;;;;;;;37.87;22.17;;;2.50;99.90;;;;;;5013642;28;21004;-67
2020/12/03 07:53:39;;;;;;;42.67;25.67;;;2.50;99.90;;;;;;5015368;28;20530;-67
2020/12/03 07:56:24;;;;;;;39.73;24.83;;;2.40;99.90;;;;;;5014042;28;20466;-65
2020/12/03 07:58:50;;;;;;;39.50;23.60;;;2.40;99.90;;;;;;5013173;28;20412;-68
2020/12/03 08:01:28;;;;;;;39.20;24.17;;;2.40;99.90;;;;;;5013380;28;20415;-65
2020/12/03 08:04:18;;;;;;;39.07;23.10;;;2.50;99.90;;;;;;5013246;28;20176;-69
2020/12/03 08:07:15;;;;;;;37.03;20.67;;;2.60;99.90;;;;;;5012866;28;20501;-69
2020/12/03 08:09:47;;;;;;;41.30;24.97;;;2.50;99.90;;;;;;5008833;28;20451;-67
2020/12/03 08:12:16;;;;;;;37.93;23.90;;;2.60;99.90;;;;;;5013103;28;20956;-66
2020/12/03 08:14:53;;;;;;;42.53;25.03;;;2.70;99.90;;;;;;5013277;28;20431;-66
2020/12/03 08:17:19;;;;;;;38.53;24.83;;;2.80;99.90;;;;;;5013234;28;20419;-67
2020/12/03 08:19:55;;;;;;;39.93;23.63;;;2.80;99.90;;;;;;5013324;28;20475;-67
2020/12/03 08:22:26;;;;;;;37.80;22.67;;;2.90;99.90;;;;;;5012966;28;20172;-68
2020/12/03 08:25:25;;;;;;;38.83;24.47;;;2.90;99.90;;;;;;5013039;28;20757;-69
2020/12/03 08:28:00;;;;;;;41.00;22.03;;;3.00;99.90;;;;;;5002274;28;20466;-67
2020/12/03 08:33:12;;;;;;;36.67;22.40;;;3.00;99.90;;;;;;5012907;28;20493;-68
2020/12/03 08:35:49;;;;;;;34.37;20.57;;;3.00;99.90;;;;;;5012517;28;20419;-65
2020/12/03 08:38:15;;;;;;;34.77;20.17;;;3.10;99.90;;;;;;5012759;28;20497;-67
2020/12/03 08:40:40;;;;;;;26.13;13.73;;;3.00;99.90;;;;;;5012526;28;20415;-64
2020/12/03 08:43:11;;;;;;;28.40;15.13;;;3.00;99.90;;;;;;5012654;28;20490;-67
2020/12/03 08:45:48;;;;;;;38.53;21.30;;;3.00;99.90;;;;;;5012737;28;20187;-70
2020/12/03 08:48:16;;;;;;;34.30;18.63;;;3.00;99.90;;;;;;5012673;28;20455;-69
2020/12/03 08:50:42;;;;;;;30.83;15.10;;;3.00;99.90;;;;;;5012430;28;20419;-66
2020/12/03 08:53:09;;;;;;;38.37;24.37;;;3.00;99.90;;;;;;5014164;28;20450;-69
2020/12/03 08:55:39;;;;;;;34.27;20.10;;;3.00;99.90;;;;;;5012223;28;20411;-64
2020/12/03 08:58:07;;;;;;;33.37;20.93;;;3.10;99.90;;;;;;5012332;28;20418;-66
2020/12/03 09:00:39;;;;;;;35.70;21.27;;;3.10;99.90;;;;;;5011905;28;20443;-67
2020/12/03 09:03:05;;;;;;;36.20;22.03;;;3.10;99.90;;;;;;5012055;28;20502;-69
2020/12/03 09:05:32;;;;;;;33.73;20.50;;;3.10;99.90;;;;;;5012230;28;20419;-68
2020/12/03 09:07:58;;;;;;;29.53;16.60;;;3.10;99.90;;;;;;5012101;28;20455;-69
2020/12/03 09:10:25;;;;;;;30.47;17.87;;;3.20;99.90;;;;;;5012105;28;20412;-66
2020/12/03 09:12:52;;;;;;;33.17;21.70;;;3.20;99.90;;;;;;5011858;28;20494;-65
2020/12/03 09:15:18;;;;;;;34.87;23.63;;;3.20;99.90;;;;;;5012184;28;20427;-67
2020/12/03 09:17:51;;;;;;;35.40;22.23;;;3.20;99.90;;;;;;5011760;28;20443;-68
2020/12/03 09:20:16;;;;;;;37.07;23.67;;;3.20;99.90;;;;;;5011809;28;20856;-67
2020/12/03 09:22:43;;;;;;;38.53;24.70;;;3.40;99.90;;;;;;5011694;28;20527;-66
2020/12/03 09:25:11;;;;;;;32.77;20.00;;;3.40;99.90;;;;;;5011660;28;20638;-65
2020/12/03 09:27:42;;;;;;;39.43;23.60;;;3.40;99.90;;;;;;5011813;28;20443;-68
2020/12/03 09:30:16;;;;;;;31.03;20.23;;;3.40;99.90;;;;;;5011732;28;20425;-66
2020/12/03 09:32:45;;;;;;;33.80;22.37;;;3.50;99.90;;;;;;5011659;28;20427;-66
2020/12/03 09:35:11;;;;;;;35.33;20.50;;;3.50;99.90;;;;;;5011567;28;20466;-67
2020/12/03 09:37:37;;;;;;;35.00;22.87;;;3.50;99.90;;;;;;5011743;28;20424;-64
2020/12/03 09:40:07;;;;;;;37.90;23.10;;;3.50;99.90;;;;;;5011164;28;20431;-65
2020/12/03 09:42:42;;;;;;;38.73;22.93;;;3.50;99.90;;;;;;5011626;28;20322;-66
2020/12/03 09:45:13;;;;;;;32.80;20.10;;;3.60;99.90;;;;;;5011251;28;20426;-68
2020/12/03 09:47:41;;;;;;;34.63;19.60;;;3.70;99.90;;;;;;5011528;28;20455;-63
2020/12/03 09:50:14;;;;;;;29.60;16.97;;;3.70;99.90;;;;;;5011571;28;20431;-67
2020/12/03 09:52:54;;;;;;;32.20;19.97;;;3.60;99.90;;;;;;5014180;28;20819;-66
2020/12/03 09:55:21;;;;;;;34.37;21.80;;;3.60;99.90;;;;;;5011519;28;20928;-64
2020/12/03 09:57:57;;;;;;;31.27;20.10;;;3.70;99.90;;;;;;5011514;28;20921;-67
2020/12/03 10:00:30;;;;;;;30.30;19.60;;;3.70;99.90;;;;;;5011151;28;20435;-64
2020/12/03 10:03:17;;;;;;;23.53;13.87;;;3.70;99.90;;;;;;5011230;28;20925;-65
2020/12/03 10:06:01;;;;;;;30.37;19.40;;;3.70;99.90;;;;;;5011282;28;20407;-65
2020/12/03 10:09:20;;;;;;;30.00;17.13;;;3.70;99.90;;;;;;5011382;28;20458;-65
2020/12/03 10:12:01;;;;;;;26.57;15.63;;;3.60;99.90;;;;;;4931536;29;20514;-66
2020/12/03 10:15:01;;;;;;;29.17;19.47;;;3.60;99.90;;;;;;5011340;28;20438;-66
2020/12/03 10:17:33;;;;;;;30.20;20.30;;;3.60;99.90;;;;;;5011269;28;20455;-67
2020/12/03 10:20:01;;;;;;;33.40;20.53;;;3.60;99.90;;;;;;5011091;28;20451;-66
2020/12/03 10:22:34;;;;;;;32.63;20.27;;;3.60;99.90;;;;;;5002441;28;20906;-67
2020/12/03 10:25:30;;;;;;;32.77;19.90;;;3.60;99.90;;;;;;4991404;28;20805;-65
2020/12/03 10:28:35;;;;;;;30.53;19.20;;;3.70;99.90;;;;;;4989970;28;20477;-66
2020/12/03 10:31:02;;;;;;;30.00;19.93;;;3.60;99.90;;;;;;4998954;28;20431;-68
2020/12/03 10:33:34;;;;;;;33.90;21.87;;;3.70;99.90;;;;;;5015190;28;20415;-65
2020/12/03 10:36:04;;;;;;;33.43;20.90;;;3.70;99.90;;;;;;5015212;28;20426;-66
2020/12/03 10:38:41;;;;;;;31.43;20.20;;;3.60;99.90;;;;;;5014988;28;20925;-67
2020/12/03 10:41:07;;;;;;;32.40;20.93;;;3.70;99.90;;;;;;5014759;28;20422;-66
2020/12/03 10:43:40;;;;;;;30.13;18.53;;;3.80;99.90;;;;;;5015075;28;20426;-66
2020/12/03 10:46:13;;;;;;;28.17;17.00;;;3.80;99.90;;;;;;5015036;28;20423;-68
2020/12/03 10:48:52;;;;;;;26.83;16.23;;;3.80;99.90;;;;;;5014895;28;20542;-64
2020/12/03 10:51:18;;;;;;;30.73;17.33;;;3.70;99.90;;;;;;4980100;28;20443;-67
2020/12/03 10:53:48;;;;;;;27.57;17.37;;;3.70;99.90;;;;;;5004954;28;20961;-65
2020/12/03 10:56:15;;;;;;;27.90;17.90;;;3.60;99.90;;;;;;5014360;28;20191;-66
2020/12/03 10:59:00;;;;;;;29.77;18.50;;;3.60;99.90;;;;;;5014529;28;20419;-67
2020/12/03 11:01:29;;;;;;;25.90;16.90;;;3.60;99.90;;;;;;5014488;28;20927;-65
2020/12/03 11:03:58;;;;;;;29.87;17.33;;;3.60;99.90;;;;;;5014738;28;20526;-65
2020/12/03 11:06:29;;;;;;;26.73;17.80;;;3.70;99.90;;;;;;5014596;28;20909;-67
2020/12/03 11:08:56;;;;;;;28.07;16.33;;;3.60;99.90;;;;;;5014499;28;20446;-64
2020/12/03 11:11:22;;;;;;;29.73;18.97;;;3.70;99.90;;;;;;5014468;28;20936;-65
2020/12/03 11:13:48;;;;;;;31.17;20.50;;;3.70;99.90;;;;;;5014282;28;20427;-67
2020/12/03 11:16:17;;;;;;;32.33;20.03;;;3.70;99.90;;;;;;5014088;28;20411;-66
2020/12/03 11:18:48;;;;;;;28.50;17.70;;;3.80;99.90;;;;;;5014256;28;20204;-66
2020/12/03 11:21:22;;;;;;;28.70;18.90;;;3.90;99.90;;;;;;5014265;28;20410;-65
2020/12/03 11:23:56;;;;;;;31.10;18.97;;;4.00;99.90;;;;;;5013923;28;20431;-68
2020/12/03 11:26:28;;;;;;;27.27;18.00;;;4.10;99.90;;;;;;5013593;28;20415;-68
2020/12/03 11:28:53;;;;;;;28.27;18.30;;;4.10;99.90;;;;;;5013974;28;21027;-67
2020/12/03 11:31:28;;;;;;;27.07;15.37;;;4.00;99.90;;;;;;5013944;28;20434;-65
2020/12/03 11:33:54;;;;;;;29.87;18.30;;;4.00;99.90;;;;;;5013939;28;20176;-67
2020/12/03 11:36:20;;;;;;;32.47;19.30;;;4.00;99.90;;;;;;5013862;28;21032;-65
2020/12/03 11:38:53;;;;;;;34.33;20.97;;;4.00;99.90;;;;;;5013538;28;20180;-66
2020/12/03 11:41:34;;;;;;;28.37;18.20;;;4.00;99.90;;;;;;5013547;28;20472;-63
2020/12/03 11:49:07;;;;;;;25.60;17.63;;;4.10;99.90;;;;;;5013609;28;20423;-65
2020/12/03 11:51:37;;;;;;;24.50;13.73;;;4.20;99.90;;;;;;5013644;28;20923;-68
2020/12/03 11:54:05;;;;;;;22.93;12.33;;;4.20;99.90;;;;;;5015475;28;20458;-68
2020/12/03 11:56:33;;;;;;;27.37;18.07;;;4.20;99.90;;;;;;5013619;28;20487;-64
2020/12/03 11:59:18;;;;;;;26.43;16.37;;;4.20;99.90;;;;;;5013776;28;20419;-68
2020/12/03 12:01:58;;;;;;;22.97;14.70;;;4.20;99.90;;;;;;5013357;28;20430;-65
2020/12/03 12:07:28;;;;;;;27.07;17.53;;;4.20;99.90;;;;;;4997130;28;20556;-67
2020/12/03 12:12:35;;;;;;;26.40;17.53;;;4.30;99.90;;;;;;5013382;28;20408;-67
2020/12/03 12:15:02;;;;;;;23.97;17.00;;;4.40;99.90;;;;;;5013100;28;20838;-67
2020/12/03 12:17:30;;;;;;;23.80;15.47;;;4.40;99.90;;;;;;5013114;28;20897;-67
2020/12/03 12:19:57;;;;;;;23.10;14.83;;;4.50;99.90;;;;;;5013300;28;20423;-67
2020/12/03 12:22:23;;;;;;;24.53;15.83;;;4.50;99.90;;;;;;5012639;28;20438;-67
2020/12/03 12:24:55;;;;;;;24.90;14.83;;;4.60;99.90;;;;;;5012879;28;20470;-66
2020/12/03 12:27:28;;;;;;;20.87;12.87;;;4.60;99.90;;;;;;5012562;28;20196;-68
2020/12/03 12:29:54;;;;;;;21.27;14.87;;;4.60;99.90;;;;;;5012639;28;20454;-68
2020/12/03 12:32:19;;;;;;;20.87;13.77;;;4.70;99.90;;;;;;5012475;28;20447;-67
2020/12/03 12:34:45;;;;;;;22.43;15.63;;;4.60;99.90;;;;;;5012568;28;20231;-68
2020/12/03 12:37:11;;;;;;;24.87;15.50;;;4.80;99.90;;;;;;5012488;28;20234;-67
2020/12/03 12:39:38;;;;;;;20.77;14.87;;;4.80;99.90;;;;;;5012458;28;20184;-66
2020/12/03 12:42:06;;;;;;;19.93;13.83;;;4.90;99.90;;;;;;4995078;28;20757;-66
2020/12/03 12:44:32;;;;;;;17.70;13.17;;;5.00;99.90;;;;;;5012381;28;20485;-66
2020/12/03 12:46:59;;;;;;;20.53;14.67;;;5.30;99.90;;;;;;5012608;28;20549;-66
2020/12/03 12:49:26;;;;;;;15.37;10.63;;;5.50;99.90;;;;;;5012573;28;20441;-68
2020/12/03 12:51:52;;;;;;;20.40;12.77;;;5.60;99.90;;;;;;4994573;28;20407;-66
2020/12/03 12:54:18;;;;;;;18.53;13.17;;;5.50;99.90;;;;;;5014859;28;20506;-68
2020/12/03 12:56:46;;;;;;;20.00;13.03;;;5.50;99.90;;;;;;5012080;28;20415;-66
2020/12/03 12:59:13;;;;;;;15.00;9.70;;;5.50;99.90;;;;;;5012133;28;20424;-65
2020/12/03 13:01:45;;;;;;;14.47;9.83;;;5.50;99.90;;;;;;5012045;28;20541;-68
2020/12/03 13:04:15;;;;;;;16.10;10.43;;;5.40;99.90;;;;;;5011930;28;20502;-68
2020/12/03 13:06:41;;;;;;;15.97;11.17;;;5.40;99.90;;;;;;5011644;28;20493;-67
2020/12/03 13:09:08;;;;;;;15.93;11.30;;;5.50;99.90;;;;;;5012072;28;20923;-65
2020/12/03 13:11:34;;;;;;;17.33;12.07;;;5.50;99.90;;;;;;5012205;28;20906;-69
2020/12/03 13:14:00;;;;;;;11.40;7.50;;;5.50;99.90;;;;;;5011988;28;20462;-68
2020/12/03 13:16:27;;;;;;;16.43;12.17;;;5.30;99.90;;;;;;5012414;28;20173;-65
2020/12/03 13:18:52;;;;;;;18.20;11.73;;;5.20;99.90;;;;;;5011801;28;20911;-65